createdAt,value
2018-02-17T00:00:04.663Z,7.11
2018-02-17T00:02:32.600Z,7.12
2018-02-17T00:05:00.597Z,7.02
2018-02-17T00:07:28.547Z,7.05
2018-02-17T00:09:56.843Z,7.11
2018-02-17T00:12:24.893Z,7.07
2018-02-17T00:14:52.854Z,6.95
2018-02-17T00:17:20.775Z,6.66
2018-02-17T00:19:48.733Z,6.68
2018-02-17T00:22:16.760Z,6.50
2018-02-17T00:24:44.770Z,6.58
2018-02-17T00:27:12.760Z,6.72
2018-02-17T00:29:40.704Z,6.91
2018-02-17T00:32:08.651Z,6.70
2018-02-17T00:34:36.594Z,6.70
2018-02-17T00:37:04.586Z,6.70
2018-02-17T00:39:32.535Z,6.56
2018-02-17T00:42:00.472Z,6.52
2018-02-17T00:44:28.421Z,6.60
2018-02-17T00:46:56.387Z,6.63
2018-02-17T00:49:24.353Z,6.69
2018-02-17T00:51:52.301Z,6.68
2018-02-17T00:54:20.252Z,6.55
2018-02-17T00:56:48.214Z,6.57
2018-02-17T00:59:16.126Z,6.54
2018-02-17T01:01:43.992Z,6.47
2018-02-17T01:04:11.965Z,6.53
2018-02-17T01:06:39.919Z,6.53
2018-02-17T01:09:07.889Z,6.51
2018-02-17T01:11:36.607Z,6.49
2018-02-17T01:14:04.583Z,6.51
2018-02-17T01:16:32.645Z,6.51
2018-02-17T01:19:00.616Z,6.37
2018-02-17T01:21:28.555Z,6.39
2018-02-17T01:23:56.682Z,6.39
2018-02-17T01:26:24.630Z,6.30
2018-02-17T01:28:52.555Z,6.26
2018-02-17T01:31:20.431Z,6.22
2018-02-17T01:33:48.447Z,6.29
2018-02-17T01:36:16.391Z,6.29
2018-02-17T01:38:44.416Z,6.28
2018-02-17T01:41:12.350Z,6.26
2018-02-17T01:43:40.283Z,6.32
2018-02-17T01:46:08.256Z,5.89
2018-02-17T01:48:36.203Z,5.63
2018-02-17T01:51:04.207Z,5.80
2018-02-17T01:53:32.233Z,6.04
2018-02-17T01:56:00.201Z,6.09
2018-02-17T01:58:28.177Z,6.17
2018-02-17T02:00:56.110Z,6.19
2018-02-17T02:03:24.055Z,6.18
2018-02-17T02:05:51.974Z,6.13
2018-02-17T02:08:19.913Z,6.06
2018-02-17T02:10:47.887Z,6.11
2018-02-17T02:13:16.239Z,6.15
2018-02-17T02:15:44.167Z,6.05
2018-02-17T02:18:12.100Z,6.06
2018-02-17T02:20:40.060Z,6.07
2018-02-17T02:23:08.031Z,6.06
2018-02-17T02:25:36.059Z,5.82
2018-02-17T02:28:04.005Z,5.53
2018-02-17T02:30:32.003Z,5.49
2018-02-17T02:32:59.943Z,5.76
2018-02-17T02:35:27.903Z,5.66
2018-02-17T02:37:55.924Z,5.83
2018-02-17T02:40:24.002Z,5.84
2018-02-17T02:42:51.906Z,5.95
2018-02-17T02:45:21.185Z,5.91
2018-02-17T02:47:49.158Z,5.90
2018-02-17T02:50:17.174Z,5.76
2018-02-17T02:52:45.116Z,5.82
2018-02-17T02:55:13.074Z,5.83
2018-02-17T02:57:41.015Z,5.79
2018-02-17T03:00:08.968Z,5.78
2018-02-17T03:02:36.983Z,5.65
2018-02-17T03:05:04.948Z,5.59
2018-02-17T03:07:32.902Z,5.62
2018-02-17T03:10:00.886Z,5.67
2018-02-17T03:12:28.778Z,5.71
2018-02-17T03:14:57.225Z,5.69
2018-02-17T03:17:25.199Z,5.69
2018-02-17T03:19:53.203Z,5.33
2018-02-17T03:22:21.096Z,5.48
2018-02-17T03:24:48.983Z,4.89
2018-02-17T03:27:16.902Z,4.66
2018-02-17T03:29:44.904Z,4.98
2018-02-17T03:32:12.886Z,5.30
2018-02-17T03:34:40.866Z,5.49
2018-02-17T03:37:08.803Z,5.60
2018-02-17T03:39:36.708Z,5.65
2018-02-17T03:42:04.682Z,4.88
2018-02-17T03:44:32.655Z,5.30
2018-02-17T03:47:00.565Z,5.38
2018-02-17T03:49:28.486Z,5.38
2018-02-17T03:51:56.430Z,4.69
2018-02-17T03:54:24.422Z,4.98
2018-02-17T03:56:52.325Z,5.19
2018-02-17T03:59:20.290Z,4.75
2018-02-17T04:01:48.233Z,4.77
2018-02-17T04:04:16.223Z,5.12
2018-02-17T04:06:44.214Z,5.01
2018-02-17T04:09:12.124Z,5.28
2018-02-17T04:11:40.098Z,5.51
2018-02-17T04:14:08.019Z,5.58
2018-02-17T04:16:36.398Z,5.36
2018-02-17T04:19:04.350Z,5.38
2018-02-17T04:21:32.288Z,5.37
2018-02-17T04:24:00.310Z,5.24
2018-02-17T04:26:28.290Z,5.41
2018-02-17T04:28:56.250Z,5.33
2018-02-17T04:31:24.153Z,4.34
2018-02-17T04:33:52.116Z,5.49
2018-02-17T04:36:20.085Z,5.77
2018-02-17T04:38:48.049Z,5.91
2018-02-17T04:44:45.375Z,6.00
2018-02-17T04:50:25.375Z,5.26
2018-02-17T04:56:14.083Z,4.90
2018-02-17T04:58:42.153Z,5.08
2018-02-17T05:01:12.002Z,5.42
2018-02-17T05:03:58.933Z,5.38
2018-02-17T05:06:42.035Z,5.03
2018-02-17T05:09:10.335Z,4.59
2018-02-17T05:11:38.705Z,4.15
2018-02-17T05:17:18.400Z,4.96
2018-02-17T05:19:51.938Z,5.41
2018-02-17T05:22:34.152Z,5.62
2018-02-17T05:25:07.350Z,5.56
2018-02-17T05:27:38.490Z,4.97
2018-02-17T05:30:09.110Z,5.03
2018-02-17T05:35:46.268Z,5.00
2018-02-17T05:38:15.046Z,5.04
2018-02-17T05:40:43.817Z,4.98
2018-02-17T05:43:12.918Z,5.38
2018-02-17T05:45:45.683Z,5.73
2018-02-17T05:48:13.755Z,5.81
2018-02-17T05:50:41.756Z,5.56
2018-02-17T05:53:09.804Z,5.64
2018-02-17T05:55:37.844Z,6.31
2018-02-17T05:58:06.340Z,6.06
2018-02-17T06:00:34.827Z,6.53
2018-02-17T06:03:03.307Z,6.87
2018-02-17T06:05:31.575Z,7.22
2018-02-17T06:07:59.962Z,7.28
2018-02-17T06:10:28.268Z,7.33
2018-02-17T06:12:56.705Z,7.57
2018-02-17T06:15:24.618Z,7.99
2018-02-17T06:17:53.257Z,7.71
2018-02-17T06:20:21.273Z,8.66
2018-02-17T06:22:49.232Z,8.64
2018-02-17T06:25:17.266Z,8.75
2018-02-17T06:27:45.185Z,8.79
2018-02-17T06:30:13.191Z,8.94
2018-02-17T06:32:41.148Z,9.09
2018-02-17T06:35:09.102Z,9.16
2018-02-17T06:37:37.131Z,9.27
2018-02-17T06:40:05.106Z,9.49
2018-02-17T06:42:33.355Z,9.98
2018-02-17T06:45:01.916Z,10.07
2018-02-17T06:47:30.119Z,10.42
2018-02-17T06:49:58.089Z,10.88
2018-02-17T06:52:26.250Z,11.00
2018-02-17T06:54:54.625Z,11.82
2018-02-17T06:57:23.109Z,11.29
2018-02-17T06:59:51.315Z,12.35
2018-02-17T07:02:19.688Z,11.78
2018-02-17T07:04:47.739Z,11.37
2018-02-17T07:07:15.661Z,11.56
2018-02-17T07:09:44.877Z,11.67
2018-02-17T07:12:12.918Z,10.68
2018-02-17T07:14:40.937Z,11.00
2018-02-17T07:17:08.987Z,10.91
2018-02-17T07:19:37.279Z,10.83
2018-02-17T07:22:05.491Z,11.25
2018-02-17T07:24:33.643Z,12.23
2018-02-17T07:27:01.948Z,13.38
2018-02-17T07:29:30.121Z,13.53
2018-02-17T07:31:58.497Z,13.63
2018-02-17T07:34:27.033Z,13.45
2018-02-17T07:36:56.192Z,12.42
2018-02-17T07:39:25.140Z,12.22
2018-02-17T07:41:53.511Z,12.03
2018-02-17T07:44:21.880Z,12.01
2018-02-17T07:46:50.025Z,12.16
2018-02-17T07:49:18.526Z,12.76
2018-02-17T07:51:47.531Z,12.58
2018-02-17T07:54:15.818Z,13.10
2018-02-17T07:56:44.694Z,12.63
2018-02-17T07:59:12.935Z,13.29
2018-02-17T08:01:41.398Z,12.90
2018-02-17T08:04:10.239Z,13.53
2018-02-17T08:06:38.286Z,14.20
2018-02-17T08:09:06.434Z,15.03
2018-02-17T08:11:34.759Z,15.67
2018-02-17T08:14:03.136Z,15.54
2018-02-17T08:16:31.406Z,15.42
2018-02-17T08:18:59.680Z,16.17
2018-02-17T08:21:27.875Z,15.61
2018-02-17T08:23:56.257Z,16.06
2018-02-17T08:26:24.326Z,15.81
2018-02-17T08:28:52.366Z,16.78
2018-02-17T08:31:20.334Z,16.80
2018-02-17T08:33:48.262Z,17.08
2018-02-17T08:36:17.293Z,17.27
2018-02-17T08:38:45.230Z,18.83
2018-02-17T08:41:13.201Z,20.50
2018-02-17T08:43:41.165Z,20.22
2018-02-17T08:46:09.182Z,19.55
2018-02-17T08:48:37.115Z,19.38
2018-02-17T08:51:05.093Z,18.69
2018-02-17T08:53:33.168Z,18.96
2018-02-17T08:56:01.204Z,19.77
2018-02-17T08:58:29.738Z,19.69
2018-02-17T09:00:58.063Z,18.66
2018-02-17T09:03:26.066Z,18.40
2018-02-17T09:05:54.461Z,18.57
2018-02-17T09:08:22.519Z,18.56
2018-02-17T09:10:50.588Z,18.28
2018-02-17T09:13:18.567Z,19.77
2018-02-17T09:15:46.551Z,20.16
2018-02-17T09:18:15.124Z,22.05
2018-02-17T09:20:43.113Z,21.66
2018-02-17T09:23:11.085Z,21.69
2018-02-17T09:25:39.082Z,20.81
2018-02-17T09:28:07.123Z,20.42
2018-02-17T09:30:35.207Z,20.56
2018-02-17T09:33:03.243Z,21.11
2018-02-17T09:35:31.864Z,20.44
2018-02-17T09:37:59.901Z,21.62
2018-02-17T09:40:27.896Z,20.23
2018-02-17T09:42:55.869Z,21.17
2018-02-17T09:45:23.868Z,21.01
2018-02-17T09:47:51.831Z,23.04
2018-02-17T09:50:19.752Z,21.99
2018-02-17T09:52:47.811Z,21.72
2018-02-17T09:55:15.765Z,23.04
2018-02-17T09:57:43.689Z,22.58
2018-02-17T10:00:11.691Z,22.65
2018-02-17T10:02:39.654Z,22.12
2018-02-17T10:05:07.571Z,22.49
2018-02-17T10:07:36.040Z,22.56
2018-02-17T10:10:04.041Z,21.66
2018-02-17T10:12:32.012Z,22.79
2018-02-17T10:15:00.015Z,23.84
2018-02-17T10:17:27.978Z,24.20
2018-02-17T10:19:55.959Z,24.88
2018-02-17T10:22:23.941Z,24.15
2018-02-17T10:24:51.919Z,24.43
2018-02-17T10:27:19.859Z,23.35
2018-02-17T10:29:47.886Z,24.42
2018-02-17T10:32:15.818Z,25.88
2018-02-17T10:34:43.869Z,25.66
2018-02-17T10:37:11.803Z,25.70
2018-02-17T10:39:39.746Z,26.00
2018-02-17T10:42:07.734Z,26.71
2018-02-17T10:44:35.680Z,27.52
2018-02-17T10:47:03.611Z,26.70
2018-02-17T10:49:31.506Z,25.67
2018-02-17T10:51:59.461Z,26.23
2018-02-17T10:54:27.417Z,25.64
2018-02-17T10:56:55.338Z,25.64
2018-02-17T10:59:23.299Z,26.28
2018-02-17T11:01:51.281Z,25.53
2018-02-17T11:04:19.246Z,25.21
2018-02-17T11:06:47.218Z,24.53
2018-02-17T11:09:15.458Z,25.94
2018-02-17T11:11:43.414Z,26.21
2018-02-17T11:14:11.362Z,25.71
2018-02-17T11:16:39.352Z,24.79
2018-02-17T11:19:07.397Z,23.97
2018-02-17T11:21:35.430Z,23.92
2018-02-17T11:24:03.330Z,24.00
2018-02-17T11:26:31.325Z,23.70
2018-02-17T11:28:59.275Z,23.69
2018-02-17T11:31:27.285Z,24.66
2018-02-17T11:33:55.235Z,23.81
2018-02-17T11:36:23.131Z,23.71
2018-02-17T11:38:51.105Z,23.07
2018-02-17T11:41:19.191Z,23.37
2018-02-17T11:43:47.348Z,24.90
2018-02-17T11:46:15.514Z,25.70
2018-02-17T11:48:43.646Z,25.25
2018-02-17T11:51:11.840Z,25.89
2018-02-17T11:53:39.976Z,26.41
2018-02-17T11:56:08.069Z,25.69
2018-02-17T11:58:36.230Z,25.04
2018-02-17T12:01:04.395Z,24.92
2018-02-17T12:03:32.534Z,25.78
2018-02-17T12:06:00.713Z,24.33
2018-02-17T12:08:28.948Z,25.68
2018-02-17T12:10:57.564Z,26.41
2018-02-17T12:13:25.754Z,25.74
2018-02-17T12:15:53.833Z,25.65
2018-02-17T12:18:22.153Z,26.13
2018-02-17T12:20:50.275Z,26.17
2018-02-17T12:23:18.422Z,26.46
2018-02-17T12:25:46.627Z,25.39
2018-02-17T12:28:14.829Z,25.92
2018-02-17T12:30:43.017Z,26.44
2018-02-17T12:33:11.196Z,27.03
2018-02-17T12:35:39.464Z,27.28
2018-02-17T12:38:07.625Z,27.35
2018-02-17T12:40:35.645Z,28.09
2018-02-17T12:43:03.603Z,26.92
2018-02-17T12:45:31.541Z,27.15
2018-02-17T12:47:59.438Z,27.64
2018-02-17T12:50:27.418Z,26.72
2018-02-17T12:52:55.396Z,28.11
2018-02-17T12:55:23.369Z,28.39
2018-02-17T12:57:51.283Z,27.40
2018-02-17T13:00:19.291Z,27.22
2018-02-17T13:02:47.299Z,27.28
2018-02-17T13:05:15.324Z,27.07
2018-02-17T13:07:43.386Z,24.91
2018-02-17T13:10:11.377Z,26.28
2018-02-17T13:12:39.903Z,26.33
2018-02-17T13:15:07.883Z,25.40
2018-02-17T13:17:35.810Z,23.59
2018-02-17T13:20:03.782Z,25.50
2018-02-17T13:22:31.706Z,25.75
2018-02-17T13:24:59.695Z,25.00
2018-02-17T13:27:27.634Z,25.98
2018-02-17T13:29:55.639Z,24.45
2018-02-17T13:32:23.631Z,25.29
2018-02-17T13:34:51.615Z,25.13
2018-02-17T13:37:19.627Z,25.39
2018-02-17T13:39:47.560Z,25.42
2018-02-17T13:42:15.527Z,24.97
2018-02-17T13:44:43.475Z,24.65
2018-02-17T13:47:11.435Z,24.78
2018-02-17T13:49:39.344Z,24.85
2018-02-17T13:52:07.292Z,24.13
2018-02-17T13:54:35.328Z,22.62
2018-02-17T13:57:03.389Z,23.59
2018-02-17T13:59:31.357Z,22.02
2018-02-17T14:01:59.357Z,22.90
2018-02-17T14:04:27.347Z,21.48
2018-02-17T14:06:55.346Z,21.27
2018-02-17T14:09:23.264Z,21.21
2018-02-17T14:11:51.185Z,20.80
2018-02-17T14:14:19.722Z,21.71
2018-02-17T14:16:47.672Z,21.15
2018-02-17T14:19:15.649Z,21.16
2018-02-17T14:21:43.629Z,20.84
2018-02-17T14:24:11.591Z,20.79
2018-02-17T14:26:39.565Z,21.32
2018-02-17T14:29:07.616Z,22.41
2018-02-17T14:31:35.653Z,23.60
2018-02-17T14:34:03.641Z,24.11
2018-02-17T14:36:31.554Z,24.28
2018-02-17T14:38:59.540Z,23.92
2018-02-17T14:41:27.519Z,23.82
2018-02-17T14:43:55.425Z,22.66
2018-02-17T14:46:23.435Z,23.05
2018-02-17T14:48:51.481Z,22.94
2018-02-17T14:51:19.604Z,22.72
2018-02-17T14:53:47.651Z,22.96
2018-02-17T14:56:15.626Z,22.81
2018-02-17T14:58:43.671Z,23.16
2018-02-17T15:01:11.640Z,22.19
2018-02-17T15:03:39.618Z,20.72
2018-02-17T15:06:07.536Z,19.81
2018-02-17T15:08:35.525Z,19.59
2018-02-17T15:11:03.513Z,19.55
2018-02-17T15:13:31.383Z,18.67
2018-02-17T15:15:59.904Z,18.91
2018-02-17T15:18:27.862Z,19.10
2018-02-17T15:20:55.864Z,18.92
2018-02-17T15:23:23.875Z,18.83
2018-02-17T15:25:51.869Z,18.66
2018-02-17T15:28:19.798Z,18.46
2018-02-17T15:30:47.780Z,18.13
2018-02-17T15:33:15.691Z,18.08
2018-02-17T15:35:43.678Z,17.57
2018-02-17T15:38:11.539Z,17.64
2018-02-17T15:40:39.542Z,17.37
2018-02-17T15:43:07.470Z,17.28
2018-02-17T15:45:35.507Z,17.00
2018-02-17T15:48:03.435Z,16.65
2018-02-17T15:50:31.333Z,16.30
2018-02-17T15:52:59.358Z,16.13
2018-02-17T15:55:27.353Z,15.89
2018-02-17T15:57:55.404Z,15.74
2018-02-17T16:00:23.434Z,15.81
2018-02-17T16:02:51.403Z,15.55
2018-02-17T16:05:19.450Z,15.28
2018-02-17T16:07:47.396Z,14.16
2018-02-17T16:10:15.414Z,14.58
2018-02-17T16:12:43.421Z,14.39
2018-02-17T16:15:11.484Z,13.99
2018-02-17T16:17:39.542Z,13.73
2018-02-17T16:20:07.538Z,13.77
2018-02-17T16:22:35.601Z,13.88
2018-02-17T16:25:03.530Z,13.64
2018-02-17T16:27:31.507Z,13.42
2018-02-17T16:29:59.484Z,12.38
2018-02-17T16:32:27.506Z,12.23
2018-02-17T16:34:55.476Z,12.24
2018-02-17T16:37:23.414Z,11.94
2018-02-17T16:39:51.421Z,12.32
2018-02-17T16:42:19.410Z,12.36
2018-02-17T16:44:47.377Z,12.39
2018-02-17T16:47:15.406Z,12.28
2018-02-17T16:49:43.339Z,12.65
2018-02-17T16:52:11.326Z,12.37
2018-02-17T16:54:39.256Z,12.45
2018-02-17T16:57:07.197Z,11.81
2018-02-17T16:59:35.138Z,11.55
2018-02-17T17:02:03.043Z,11.91
2018-02-17T17:04:31.021Z,12.43
2018-02-17T17:06:58.999Z,12.59
2018-02-17T17:09:26.973Z,12.21
2018-02-17T17:11:54.989Z,12.31
2018-02-17T17:14:22.956Z,12.22
2018-02-17T17:16:50.907Z,12.55
2018-02-17T17:19:19.116Z,11.93
2018-02-17T17:21:47.128Z,12.34
2018-02-17T17:24:15.123Z,12.49
2018-02-17T17:26:43.209Z,12.39
2018-02-17T17:29:11.180Z,12.13
2018-02-17T17:31:39.214Z,11.91
2018-02-17T17:34:07.134Z,11.73
2018-02-17T17:36:35.094Z,11.81
2018-02-17T17:39:03.109Z,11.78
2018-02-17T17:41:31.074Z,11.66
2018-02-17T17:44:00.314Z,11.63
2018-02-17T17:46:28.332Z,11.76
2018-02-17T17:48:56.257Z,11.25
2018-02-17T17:51:24.264Z,11.52
2018-02-17T17:53:52.278Z,10.82
2018-02-17T17:56:20.274Z,11.42
2018-02-17T17:58:48.226Z,11.49
2018-02-17T18:01:16.202Z,11.25
2018-02-17T18:03:44.163Z,11.36
2018-02-17T18:06:12.160Z,10.56
2018-02-17T18:08:40.191Z,10.26
2018-02-17T18:11:08.197Z,10.79
2018-02-17T18:13:36.413Z,10.34
2018-02-17T18:16:04.427Z,10.07
2018-02-17T18:18:32.459Z,10.47
2018-02-17T18:21:00.869Z,10.80
2018-02-17T18:23:29.002Z,11.00
2018-02-17T18:25:58.182Z,10.84
2018-02-17T18:28:26.195Z,10.72
2018-02-17T18:30:54.228Z,10.77
2018-02-17T18:33:22.266Z,11.03
2018-02-17T18:35:50.275Z,10.99
2018-02-17T18:38:18.214Z,10.77
2018-02-17T18:40:46.245Z,10.80
2018-02-17T18:43:14.224Z,10.89
2018-02-17T18:45:42.173Z,10.78
2018-02-17T18:48:10.161Z,10.64
2018-02-17T18:50:38.179Z,10.12
2018-02-17T18:53:06.127Z,10.59
2018-02-17T18:55:34.109Z,9.72
2018-02-17T18:58:02.100Z,9.50
2018-02-17T19:00:30.055Z,9.46
2018-02-17T19:02:58.054Z,10.15
2018-02-17T19:05:26.107Z,10.38
2018-02-17T19:07:55.016Z,9.77
2018-02-17T19:10:23.088Z,9.39
2018-02-17T19:12:51.183Z,9.22
2018-02-17T19:15:19.461Z,9.68
2018-02-17T19:17:47.507Z,9.87
2018-02-17T19:20:15.437Z,10.41
2018-02-17T19:22:43.573Z,10.53
2018-02-17T19:25:11.535Z,10.64
2018-02-17T19:27:39.550Z,10.67
2018-02-17T19:30:07.578Z,10.70
2018-02-17T19:32:36.237Z,10.70
2018-02-17T19:35:04.269Z,10.72
2018-02-17T19:37:32.307Z,10.82
2018-02-17T19:40:00.775Z,10.69
2018-02-17T19:42:28.801Z,10.71
2018-02-17T19:44:56.925Z,10.72
2018-02-17T19:47:24.988Z,10.68
2018-02-17T19:49:54.511Z,10.75
2018-02-17T19:52:22.571Z,10.57
2018-02-17T19:54:50.467Z,10.57
2018-02-17T19:57:18.660Z,10.64
2018-02-17T19:59:46.643Z,9.76
2018-02-17T20:02:14.632Z,9.19
2018-02-17T20:04:42.612Z,9.33
2018-02-17T20:07:10.677Z,9.57
2018-02-17T20:09:38.732Z,9.62
2018-02-17T20:12:06.742Z,9.50
2018-02-17T20:14:34.753Z,9.31
2018-02-17T20:17:02.961Z,9.42
2018-02-17T20:19:30.919Z,9.43
2018-02-17T20:21:58.928Z,9.25
2018-02-17T20:24:27.277Z,9.24
2018-02-17T20:26:56.358Z,9.23
2018-02-17T20:29:24.517Z,8.44
2018-02-17T20:31:52.512Z,7.83
2018-02-17T20:34:20.547Z,8.49
2018-02-17T20:36:48.660Z,8.26
2018-02-17T20:39:16.675Z,8.11
2018-02-17T20:41:44.595Z,7.81
2018-02-17T20:44:12.574Z,8.25
2018-02-17T20:46:40.506Z,8.65
2018-02-17T20:49:08.498Z,8.90
2018-02-17T20:51:37.439Z,8.98
2018-02-17T20:54:05.439Z,9.11
2018-02-17T20:56:33.377Z,9.07
2018-02-17T20:59:01.285Z,8.97
2018-02-17T21:01:29.329Z,9.23
2018-02-17T21:03:57.339Z,9.27
2018-02-17T21:06:25.330Z,9.18
2018-02-17T21:08:53.284Z,9.03
2018-02-17T21:11:21.336Z,8.56
2018-02-17T21:13:49.258Z,8.06
2018-02-17T21:16:17.239Z,7.95
2018-02-17T21:18:45.423Z,8.47
2018-02-17T21:21:13.441Z,8.51
2018-02-17T21:23:41.446Z,8.72
2018-02-17T21:26:10.162Z,7.77
2018-02-17T21:28:38.245Z,8.03
2018-02-17T21:31:06.256Z,8.81
2018-02-17T21:33:34.181Z,9.03
2018-02-17T21:36:02.109Z,9.32
2018-02-17T21:38:30.126Z,9.41
2018-02-17T21:40:58.767Z,9.49
2018-02-17T21:43:26.801Z,9.57
2018-02-17T21:45:54.733Z,9.61
2018-02-17T21:48:22.668Z,9.49
2018-02-17T21:50:50.648Z,8.90
2018-02-17T21:53:18.610Z,8.76
2018-02-17T21:55:46.571Z,8.57
2018-02-17T21:58:14.562Z,8.17
2018-02-17T22:00:42.537Z,8.55
2018-02-17T22:03:10.497Z,8.83
2018-02-17T22:05:38.447Z,9.05
2018-02-17T22:08:06.366Z,9.25
2018-02-17T22:10:34.341Z,9.47
2018-02-17T22:13:02.263Z,9.60
2018-02-17T22:15:30.159Z,9.66
2018-02-17T22:17:58.095Z,9.78
2018-02-17T22:20:26.251Z,9.78
2018-02-17T22:22:54.284Z,9.89
2018-02-17T22:25:22.229Z,10.11
2018-02-17T22:27:50.609Z,10.17
2018-02-17T22:30:18.490Z,9.10
2018-02-17T22:32:46.422Z,8.28
2018-02-17T22:35:14.395Z,8.29
2018-02-17T22:37:42.385Z,7.97
2018-02-17T22:40:10.390Z,8.01
2018-02-17T22:42:38.358Z,8.29
2018-02-17T22:45:06.320Z,8.38
2018-02-17T22:47:34.372Z,8.89
2018-02-17T22:50:02.297Z,8.97
2018-02-17T22:52:30.260Z,8.79
2018-02-17T22:54:58.218Z,9.17
2018-02-17T22:57:26.146Z,9.24
2018-02-17T22:59:54.131Z,9.35
2018-02-17T23:02:22.072Z,9.17
2018-02-17T23:04:49.993Z,9.30
2018-02-17T23:07:17.966Z,9.33
2018-02-17T23:09:45.975Z,9.26
2018-02-17T23:12:13.889Z,9.05
2018-02-17T23:14:41.922Z,9.24
2018-02-17T23:17:09.907Z,9.19
2018-02-17T23:19:38.034Z,9.21
2018-02-17T23:22:06.212Z,9.38
2018-02-17T23:24:34.222Z,9.50
2018-02-17T23:27:02.218Z,9.34
2018-02-17T23:29:30.435Z,9.29
2018-02-17T23:31:58.611Z,9.28
2018-02-17T23:34:26.592Z,9.35
2018-02-17T23:36:54.545Z,9.41
2018-02-17T23:39:22.489Z,9.46
2018-02-17T23:41:50.438Z,9.54
2018-02-17T23:44:18.442Z,9.60
2018-02-17T23:46:46.418Z,9.65
2018-02-17T23:49:14.378Z,9.67
2018-02-17T23:51:42.327Z,9.59
2018-02-17T23:54:10.302Z,9.58
2018-02-17T23:56:38.243Z,9.32
2018-02-17T23:59:06.181Z,9.23
